Time;durP1;ratioP1;P1;durP2;ratioP2;P2;SDS_P1;SDS_P2;PMS_P1;PMS_P2;Temp;Humidity;BMP_temperature;BMP_pressure;BME280_temperature;BME280_humidity;BME280_pressure;Samples;Min_cycle;Max_cycle;Signal;HPM_P1;HPM_P2
2023/06/27 00:00:17;;;;;;;7.37;4.78;;;;;;;27.33;39.31;99393.16;4375581;32;34114;-68
2023/06/27 00:02:46;;;;;;;8.93;4.72;;;;;;;27.31;39.23;99392.56;4362074;32;33586;-67
2023/06/27 00:05:14;;;;;;;7.12;4.65;;;;;;;27.29;39.15;99386.53;4361990;32;34384;-68
2023/06/27 00:07:42;;;;;;;6.93;5.10;;;;;;;27.29;39.05;99386.53;4363832;32;33832;-65
2023/06/27 00:10:10;;;;;;;8.20;4.60;;;;;;;27.28;39.02;99384.88;4377445;32;33460;-64
2023/06/27 00:12:38;;;;;;;8.43;5.03;;;;;;;27.27;39.04;99384.03;4369688;32;34432;-67
2023/06/27 00:15:06;;;;;;;6.40;4.80;;;;;;;27.26;39.00;99387.06;4362451;32;34019;-68
2023/06/27 00:17:34;;;;;;;6.65;4.47;;;;;;;27.25;39.01;99394.44;4362403;32;34199;-66
2023/06/27 00:20:02;;;;;;;7.40;4.85;;;;;;;27.25;38.97;99399.09;4361765;32;33942;-68
2023/06/27 00:22:30;;;;;;;7.97;5.22;;;;;;;27.24;38.95;99395.53;4361409;32;34515;-68
2023/06/27 00:24:58;;;;;;;6.75;4.85;;;;;;;27.24;38.90;99391.97;4360499;32;33437;-68
2023/06/27 00:27:25;;;;;;;9.50;5.12;;;;;;;27.23;38.88;99395.78;4360428;32;33820;-67
2023/06/27 00:29:53;;;;;;;7.82;5.15;;;;;;;27.21;38.84;99396.88;4360377;32;34357;-68
2023/06/27 00:32:21;;;;;;;7.50;4.80;;;;;;;27.18;38.82;99394.66;4360360;32;33467;-68
2023/06/27 00:34:49;;;;;;;7.82;4.72;;;;;;;27.17;38.80;99397.66;4360374;32;33909;-68
2023/06/27 00:37:16;;;;;;;8.18;5.22;;;;;;;27.16;38.84;99402.31;4360634;32;34151;-68
2023/06/27 00:39:44;;;;;;;9.23;5.12;;;;;;;27.16;38.85;99398.75;4362194;32;34192;-68
2023/06/27 00:42:11;;;;;;;8.05;5.15;;;;;;;27.17;38.88;99403.12;4362347;32;34679;-68
2023/06/27 00:44:39;;;;;;;7.22;4.60;;;;;;;27.16;38.90;99402.31;4362349;32;34000;-68
2023/06/27 00:47:07;;;;;;;9.68;5.03;;;;;;;27.16;38.90;99404.22;4362277;32;34018;-68
2023/06/27 00:49:36;;;;;;;14.90;5.93;;;;;;;27.14;38.96;99411.88;4348813;32;33745;-67
2023/06/27 00:52:04;;;;;;;9.57;4.80;;;;;;;27.13;38.96;99408.31;4348867;32;33999;-66
2023/06/27 00:54:32;;;;;;;7.12;4.68;;;;;;;27.13;38.97;99402.81;4362286;32;33833;-68
2023/06/27 00:56:59;;;;;;;6.72;4.15;;;;;;;27.12;38.99;99392.97;4348824;32;34262;-68
2023/06/27 00:59:27;;;;;;;7.12;4.53;;;;;;;27.11;39.00;99391.31;4348761;32;34591;-67
2023/06/27 01:01:55;;;;;;;7.85;4.75;;;;;;;27.10;38.99;99384.19;4362150;32;34778;-68
2023/06/27 01:04:22;;;;;;;9.60;4.70;;;;;;;27.10;38.95;99388.84;4362193;32;33983;-68
2023/06/27 01:07:03;;;;;;;8.57;5.37;;;;;;;27.08;38.95;99380.88;4367352;32;34290;-68
2023/06/27 01:09:34;;;;;;;7.45;4.68;;;;;;;27.10;38.96;99388.84;4376931;32;33568;-68
2023/06/27 01:12:33;;;;;;;6.82;4.60;;;;;;;27.06;38.97;99385.78;4376924;32;34565;-68
2023/06/27 01:15:01;;;;;;;7.72;5.25;;;;;;;27.08;38.90;99374.53;4363577;32;34406;-67
2023/06/27 01:17:32;;;;;;;8.40;4.90;;;;;;;27.05;38.89;99378.66;4376907;32;33919;-68
2023/06/27 01:20:00;;;;;;;6.82;4.65;;;;;;;27.04;38.95;99373.41;4364061;32;33672;-68
2023/06/27 01:22:32;;;;;;;6.30;4.40;;;;;;;27.01;38.97;99363.81;4377027;32;33498;-68
2023/06/27 01:25:00;;;;;;;6.65;4.80;;;;;;;27.01;39.02;99357.53;4363498;32;34933;-68
2023/06/27 01:27:28;;;;;;;6.20;4.47;;;;;;;26.99;39.04;99356.94;4363285;32;34238;-68
2023/06/27 01:29:56;;;;;;;6.80;4.82;;;;;;;26.99;39.04;99352.28;4351151;32;34097;-67
2023/06/27 01:32:38;;;;;;;6.07;4.15;;;;;;;26.98;39.06;99356.13;4376991;32;33509;-68
2023/06/27 01:35:23;;;;;;;7.70;4.78;;;;;;;26.97;39.10;99349.00;4363483;32;33746;-68
2023/06/27 01:38:01;;;;;;;7.18;5.12;;;;;;;26.98;39.08;99345.16;4362994;32;34812;-68
2023/06/27 01:40:33;;;;;;;7.12;5.03;;;;;;;26.95;39.09;99341.06;4363698;32;33165;-67
2023/06/27 01:43:03;;;;;;;7.18;5.00;;;;;;;26.94;39.11;99339.38;4363284;32;34869;-68
2023/06/27 01:45:31;;;;;;;8.23;4.50;;;;;;;26.94;39.12;99344.03;4363338;32;34735;-68
2023/06/27 01:47:59;;;;;;;8.20;4.70;;;;;;;26.92;39.12;99336.09;4363284;32;34208;-69
2023/06/27 01:50:26;;;;;;;8.23;4.72;;;;;;;26.91;39.11;99342.66;4363262;32;34556;-68
2023/06/27 01:52:54;;;;;;;7.95;4.95;;;;;;;26.91;39.16;99347.31;4376746;32;34624;-67
2023/06/27 01:55:22;;;;;;;6.95;4.40;;;;;;;26.91;39.14;99347.31;4376692;32;34126;-67
2023/06/27 01:57:52;;;;;;;6.30;4.65;;;;;;;26.90;39.13;99334.69;4376808;32;34415;-68
2023/06/27 02:00:20;;;;;;;6.70;4.40;;;;;;;26.89;39.14;99338.50;4376702;32;34501;-68
2023/06/27 02:02:48;;;;;;;7.95;4.78;;;;;;;26.88;39.12;99343.16;4376700;32;33959;-68
2023/06/27 02:05:16;;;;;;;8.75;4.85;;;;;;;26.89;39.02;99335.78;4376535;32;34239;-67
2023/06/27 02:07:44;;;;;;;7.45;4.62;;;;;;;26.89;38.98;99336.59;4375956;32;34115;-68
2023/06/27 02:10:12;;;;;;;11.15;4.80;;;;;;;26.90;38.95;99342.91;4376676;32;33925;-68
2023/06/27 02:12:39;;;;;;;9.20;4.80;;;;;;;26.89;38.94;99347.56;4368699;32;34492;-69
2023/06/27 02:15:07;;;;;;;7.70;4.80;;;;;;;26.89;38.96;99341.25;4361580;32;33930;-68
2023/06/27 02:17:35;;;;;;;6.43;4.30;;;;;;;26.90;39.00;99342.91;4361483;32;34867;-69
2023/06/27 02:20:04;;;;;;;8.60;4.05;;;;;;;26.91;38.99;99350.06;4347762;32;32537;-65
2023/06/27 02:22:33;;;;;;;7.43;4.40;;;;;;;26.92;38.96;99351.69;4361795;32;33841;-68
2023/06/27 02:25:01;;;;;;;6.68;4.82;;;;;;;26.91;38.94;99345.41;4361544;32;34724;-68
2023/06/27 02:27:28;;;;;;;8.90;4.70;;;;;;;26.91;38.93;99337.19;4361369;32;33826;-68
2023/06/27 02:29:56;;;;;;;6.55;4.50;;;;;;;26.93;38.93;99336.91;4361498;32;33299;-65
2023/06/27 02:32:23;;;;;;;6.62;4.60;;;;;;;26.94;38.97;99333.09;4361374;32;34774;-67
2023/06/27 02:34:51;;;;;;;6.47;4.18;;;;;;;26.93;38.93;99324.03;4361351;32;33683;-68
2023/06/27 02:37:19;;;;;;;7.45;4.18;;;;;;;26.94;38.91;99316.66;4361297;32;33828;-68
2023/06/27 02:39:46;;;;;;;6.07;4.07;;;;;;;26.93;38.94;99313.09;4361287;32;34085;-69
2023/06/27 02:42:14;;;;;;;6.53;4.43;;;;;;;26.93;38.91;99306.81;4360969;32;33669;-67
2023/06/27 02:44:41;;;;;;;7.00;4.40;;;;;;;26.93;38.93;99307.63;4361324;32;33718;-68
2023/06/27 02:47:09;;;;;;;7.78;4.50;;;;;;;26.93;38.88;99295.84;4361193;32;33676;-66
2023/06/27 02:49:36;;;;;;;6.45;4.30;;;;;;;26.93;38.92;99302.16;4360965;32;34296;-67
2023/06/27 02:52:04;;;;;;;9.15;4.97;;;;;;;26.93;38.90;99295.84;4361109;32;33808;-68
2023/06/27 02:54:32;;;;;;;7.32;4.32;;;;;;;26.93;38.89;99295.84;4361415;32;34034;-68
2023/06/27 02:57:00;;;;;;;7.32;4.53;;;;;;;26.93;38.93;99301.31;4361088;32;33986;-67
2023/06/27 02:59:28;;;;;;;8.95;4.30;;;;;;;26.93;38.92;99301.31;4347822;32;34387;-68
2023/06/27 03:01:56;;;;;;;7.97;4.70;;;;;;;26.93;38.93;99317.75;4360987;32;34618;-68
2023/06/27 03:04:24;;;;;;;12.77;4.70;;;;;;;26.92;38.93;99325.13;4360829;32;34021;-68
2023/06/27 03:06:52;;;;;;;8.40;4.43;;;;;;;26.92;38.91;99327.06;4347812;32;34146;-64
2023/06/27 03:09:20;;;;;;;7.50;4.70;;;;;;;26.92;38.89;99341.56;4360871;32;34538;-64
2023/06/27 03:11:48;;;;;;;7.40;4.62;;;;;;;26.92;38.92;99332.53;4363245;32;34293;-65
2023/06/27 03:14:17;;;;;;;7.75;4.50;;;;;;;26.92;38.92;99329.78;4375987;32;34020;-68
2023/06/27 03:16:45;;;;;;;10.75;4.45;;;;;;;26.93;38.84;99331.44;4375752;32;34207;-69
2023/06/27 03:19:13;;;;;;;7.32;3.95;;;;;;;26.93;38.78;99326.78;4376449;32;33395;-68
2023/06/27 03:21:41;;;;;;;7.28;5.03;;;;;;;26.93;38.73;99320.50;4378046;32;33835;-67
2023/06/27 03:24:09;;;;;;;8.02;4.45;;;;;;;26.92;38.71;99316.09;4364240;32;34776;-67
2023/06/27 03:26:42;;;;;;;6.68;4.40;;;;;;;26.92;38.69;99321.59;4377995;32;34995;-68
2023/06/27 03:29:10;;;;;;;6.12;4.15;;;;;;;26.90;38.61;99313.59;4378000;32;33421;-69
2023/06/27 03:31:38;;;;;;;6.18;4.50;;;;;;;26.90;38.64;99321.81;4377842;32;33980;-68
2023/06/27 03:34:06;;;;;;;7.12;4.55;;;;;;;26.91;38.66;99319.94;4377920;32;33880;-68
2023/06/27 03:36:33;;;;;;;6.55;4.18;;;;;;;26.91;38.66;99319.94;4377879;32;34607;-67
2023/06/27 03:39:03;;;;;;;6.90;4.30;;;;;;;26.90;38.68;99312.78;4377651;32;33553;-68
2023/06/27 03:41:31;;;;;;;6.77;4.50;;;;;;;26.90;38.71;99316.34;4364387;32;34639;-68
2023/06/27 03:43:58;;;;;;;7.18;4.90;;;;;;;26.91;38.72;99309.81;4377510;32;34014;-68
2023/06/27 03:46:26;;;;;;;6.32;4.15;;;;;;;26.91;38.75;99303.50;4377438;32;35090;-66
2023/06/27 03:48:56;;;;;;;7.70;4.43;;;;;;;26.90;38.82;99305.41;4377648;32;34140;-68
2023/06/27 03:51:24;;;;;;;;;;;;;;;26.90;38.86;99291.72;4377902;32;33764;-69
2023/06/27 03:53:52;;;;;;;6.97;4.43;;;;;;;27.02;38.69;99296.19;4377410;32;33906;-67
2023/06/27 03:56:20;;;;;;;8.23;4.82;;;;;;;26.93;38.90;99307.63;4377776;32;34931;-67
2023/06/27 03:58:47;;;;;;;6.97;4.35;;;;;;;26.90;38.95;99302.66;4377755;32;34401;-68
2023/06/27 04:01:16;;;;;;;6.70;4.45;;;;;;;26.90;38.99;99308.13;4377683;32;32872;-68
2023/06/27 04:03:44;;;;;;;8.95;4.97;;;;;;;26.90;39.00;99301.84;4377468;32;34046;-68
2023/06/27 04:06:12;;;;;;;7.62;4.43;;;;;;;26.92;39.03;99299.69;4377502;32;34521;-68
2023/06/27 04:08:39;;;;;;;6.97;4.85;;;;;;;26.91;39.08;99308.97;4377589;32;33228;-68
2023/06/27 04:11:07;;;;;;;7.28;4.60;;;;;;;26.91;39.09;99309.81;4377577;32;33957;-68
2023/06/27 04:13:35;;;;;;;7.45;4.50;;;;;;;26.91;39.09;99298.84;4363982;32;34690;-68
2023/06/27 04:16:04;;;;;;;7.53;4.62;;;;;;;26.92;39.10;99313.38;4362505;32;33876;-67
2023/06/27 04:18:31;;;;;;;7.12;4.72;;;;;;;26.92;39.09;99302.41;4362129;32;33571;-66
2023/06/27 04:20:59;;;;;;;7.65;4.70;;;;;;;26.92;39.09;99316.09;4362306;32;33718;-67
2023/06/27 04:23:26;;;;;;;8.35;4.10;;;;;;;26.92;39.12;99321.59;4362606;32;34388;-67
2023/06/27 04:26:04;;;;;;;7.47;4.70;;;;;;;26.93;39.13;99323.22;4362453;32;34190;-68
2023/06/27 04:28:32;;;;;;;11.10;4.60;;;;;;;26.93;39.12;99332.25;4362138;32;33712;-68
2023/06/27 04:31:00;;;;;;;7.32;4.47;;;;;;;26.92;39.15;99324.31;4336378;32;34747;-64
2023/06/27 04:33:28;;;;;;;7.30;4.62;;;;;;;26.91;39.19;99326.25;4348737;32;33491;-68
2023/06/27 04:36:02;;;;;;;7.00;4.30;;;;;;;26.90;39.20;99324.56;4336444;32;34062;-67
2023/06/27 04:38:30;;;;;;;8.07;4.62;;;;;;;26.91;39.16;99322.69;4338050;32;33471;-68
2023/06/27 04:40:58;;;;;;;8.50;4.65;;;;;;;26.90;39.15;99331.94;4362401;32;33855;-67
2023/06/27 04:43:28;;;;;;;8.15;4.57;;;;;;;26.90;39.17;99326.47;4361899;32;33654;-65
2023/06/27 04:45:56;;;;;;;8.75;4.65;;;;;;;26.91;39.24;99341.84;4362019;32;34289;-67
2023/06/27 04:48:24;;;;;;;7.75;4.50;;;;;;;26.90;39.28;99349.19;4362121;32;33351;-68
2023/06/27 04:50:51;;;;;;;7.30;4.32;;;;;;;26.89;39.29;99342.06;4362190;32;35321;-64
2023/06/27 04:53:22;;;;;;;8.23;4.18;;;;;;;26.91;39.31;99339.91;4362060;32;34833;-65
2023/06/27 04:55:51;;;;;;;9.10;4.85;;;;;;;26.89;39.39;99339.34;4361956;32;34095;-68
2023/06/27 04:58:19;;;;;;;9.40;4.60;;;;;;;26.89;39.48;99336.59;4362054;32;33810;-65
2023/06/27 05:00:47;;;;;;;7.43;5.18;;;;;;;26.91;39.54;99345.41;4362030;32;33861;-67
2023/06/27 05:03:14;;;;;;;7.20;4.65;;;;;;;26.91;39.59;99334.44;4336386;32;34001;-67
2023/06/27 05:05:43;;;;;;;11.07;4.50;;;;;;;26.91;39.69;99314.47;4362091;32;34085;-65
2023/06/27 05:08:11;;;;;;;9.73;4.95;;;;;;;26.91;39.86;99314.47;4354563;32;33529;-66
2023/06/27 05:10:39;;;;;;;11.73;4.70;;;;;;;26.92;40.02;99305.16;4369435;32;34561;-67
2023/06/27 05:13:07;;;;;;;9.43;5.35;;;;;;;26.92;40.29;99310.62;4365479;32;33912;-65
2023/06/27 05:15:34;;;;;;;12.88;6.07;;;;;;;26.91;40.47;99304.34;4362294;32;34193;-64
2023/06/27 05:18:08;;;;;;;8.82;5.35;;;;;;;26.92;40.65;99307.91;4361795;32;34571;-64
2023/06/27 05:20:35;;;;;;;11.75;5.45;;;;;;;26.91;41.02;99319.94;4361966;32;34109;-65
2023/06/27 05:23:04;;;;;;;8.85;5.72;;;;;;;26.90;41.24;99324.56;4366790;32;34797;-65
2023/06/27 05:25:31;;;;;;;9.48;5.62;;;;;;;26.89;41.80;99319.34;4354629;32;34424;-66
2023/06/27 05:27:59;;;;;;;10.75;6.12;;;;;;;26.88;42.26;99334.12;4368187;32;34582;-64
2023/06/27 05:30:27;;;;;;;9.00;5.82;;;;;;;26.88;42.49;99339.63;4355392;32;33842;-64
2023/06/27 05:32:55;;;;;;;9.68;6.03;;;;;;;26.86;42.51;99334.41;4344035;32;35016;-65
2023/06/27 05:35:23;;;;;;;11.02;6.15;;;;;;;26.85;42.58;99332.72;4353809;32;34852;-67
2023/06/27 05:37:51;;;;;;;10.43;6.55;;;;;;;26.86;42.78;99320.72;4361704;32;33620;-64
2023/06/27 05:40:18;;;;;;;9.02;6.35;;;;;;;26.86;43.12;99331.66;4361759;32;33892;-65
2023/06/27 05:42:48;;;;;;;7.78;5.75;;;;;;;26.84;43.15;99328.34;4360964;32;34037;-64
2023/06/27 05:45:16;;;;;;;9.13;6.57;;;;;;;26.85;43.20;99335.47;4361755;32;34747;-65
2023/06/27 05:47:45;;;;;;;9.52;6.40;;;;;;;26.85;43.29;99340.13;4362123;32;33646;-65
2023/06/27 05:50:13;;;;;;;8.63;6.18;;;;;;;26.84;43.28;99347.50;4361514;32;33908;-64
2023/06/27 05:52:40;;;;;;;9.15;6.68;;;;;;;26.83;43.34;99345.03;4375748;32;34515;-64
2023/06/27 05:55:08;;;;;;;10.32;6.47;;;;;;;26.83;43.43;99353.25;4376784;32;34156;-65
2023/06/27 05:57:36;;;;;;;10.55;6.55;;;;;;;26.84;43.46;99346.69;4367311;32;34376;-64
2023/06/27 06:00:05;;;;;;;9.82;6.47;;;;;;;26.84;43.58;99341.22;4368557;32;34586;-68
2023/06/27 06:02:38;;;;;;;9.98;6.93;;;;;;;26.84;43.79;99336.56;4364017;32;33801;-64
2023/06/27 06:05:09;;;;;;;10.77;6.47;;;;;;;26.84;43.84;99333.00;4375493;32;34195;-66
2023/06/27 06:07:39;;;;;;;;;;;;;;;26.84;43.88;99333.81;4392005;32;33401;-68
2023/06/27 06:10:07;;;;;;;9.38;7.40;;;;;;;26.93;43.61;99335.00;4382017;32;33844;-67
2023/06/27 06:12:34;;;;;;;9.02;6.93;;;;;;;26.85;44.05;99324.53;4362702;32;33910;-66
2023/06/27 06:15:02;;;;;;;10.60;7.68;;;;;;;26.83;44.17;99332.19;4375984;32;34177;-68
2023/06/27 06:17:30;;;;;;;10.23;7.18;;;;;;;26.81;44.25;99326.12;4376555;32;34382;-67
2023/06/27 06:19:57;;;;;;;10.13;7.15;;;;;;;26.84;44.31;99322.87;4376020;32;34641;-68
2023/06/27 06:22:25;;;;;;;8.45;6.62;;;;;;;26.83;44.39;99328.63;4376394;32;33834;-65
2023/06/27 06:24:52;;;;;;;9.57;7.40;;;;;;;26.86;44.44;99328.06;4376434;32;33317;-68
2023/06/27 06:27:20;;;;;;;10.85;7.15;;;;;;;26.86;44.57;99334.41;4376354;32;33282;-68
2023/06/27 06:29:48;;;;;;;10.18;7.35;;;;;;;26.88;44.67;99336.88;4376485;32;34394;-68
2023/06/27 06:32:15;;;;;;;10.30;8.00;;;;;;;26.88;44.68;99340.44;4374826;32;34075;-66
2023/06/27 06:34:43;;;;;;;9.90;6.87;;;;;;;26.89;44.82;99338.50;4376201;32;34179;-65
2023/06/27 06:37:11;;;;;;;10.90;8.13;;;;;;;26.89;44.98;99339.34;4362634;32;32363;-64
2023/06/27 06:39:38;;;;;;;12.85;7.95;;;;;;;26.91;45.02;99353.59;4370245;32;34826;-65
2023/06/27 06:42:06;;;;;;;11.50;7.78;;;;;;;26.91;45.08;99359.09;4375109;32;33929;-64
2023/06/27 06:44:33;;;;;;;10.02;7.87;;;;;;;26.91;45.17;99348.13;4391176;32;34968;-64
2023/06/27 06:47:01;;;;;;;9.85;7.82;;;;;;;26.92;45.27;99348.97;4383648;32;33915;-65
2023/06/27 06:49:29;;;;;;;10.65;8.05;;;;;;;26.92;45.33;99351.69;4376071;32;34665;-64
2023/06/27 06:51:56;;;;;;;11.05;7.72;;;;;;;26.92;45.37;99348.97;4376063;32;34893;-65
2023/06/27 06:54:24;;;;;;;9.73;7.45;;;;;;;26.92;45.39;99368.13;4377798;32;34056;-65
2023/06/27 06:56:52;;;;;;;12.45;8.38;;;;;;;26.91;45.45;99381.00;4377894;32;34105;-65
2023/06/27 06:59:19;;;;;;;11.02;7.57;;;;;;;26.92;45.45;99398.25;4386347;32;33749;-67
2023/06/27 07:01:47;;;;;;;9.93;7.43;;;;;;;26.93;45.49;99397.16;4392852;32;33622;-66
2023/06/27 07:04:14;;;;;;;10.10;7.82;;;;;;;26.93;45.46;99392.50;4392819;32;34168;-68
2023/06/27 07:06:42;;;;;;;11.93;7.75;;;;;;;26.93;45.39;99386.19;4392861;32;33638;-68
2023/06/27 07:09:09;;;;;;;10.93;8.20;;;;;;;26.92;45.40;99382.63;4392990;32;33865;-68
2023/06/27 07:11:37;;;;;;;12.85;7.37;;;;;;;26.92;45.41;99388.09;4391331;32;34038;-67
2023/06/27 07:14:05;;;;;;;10.93;7.80;;;;;;;26.92;45.51;99388.09;4377755;32;33855;-68
2023/06/27 07:16:32;;;;;;;10.50;7.18;;;;;;;26.92;45.60;99381.81;4377834;32;34498;-67
2023/06/27 07:19:00;;;;;;;12.50;7.78;;;;;;;26.93;45.57;99380.72;4377560;32;33916;-68
2023/06/27 07:21:28;;;;;;;8.88;7.50;;;;;;;26.92;45.58;99384.56;4377816;32;34751;-65
2023/06/27 07:23:56;;;;;;;9.65;7.60;;;;;;;26.92;45.65;99381.81;4377720;32;34123;-67
2023/06/27 07:26:24;;;;;;;10.90;7.75;;;;;;;26.92;45.68;99399.06;4377525;32;33683;-68
2023/06/27 07:28:51;;;;;;;10.13;7.80;;;;;;;26.92;45.70;99395.50;4377743;32;34794;-68
2023/06/27 07:31:19;;;;;;;9.10;7.65;;;;;;;26.91;45.70;99394.69;4377991;32;33976;-67
2023/06/27 07:33:47;;;;;;;12.07;7.37;;;;;;;26.92;45.72;99399.06;4364199;32;34052;-67
2023/06/27 07:36:14;;;;;;;9.10;7.32;;;;;;;26.93;45.71;99388.94;4362582;32;33460;-67
2023/06/27 07:38:42;;;;;;;9.82;7.57;;;;;;;26.96;45.66;99391.16;4392735;32;33796;-67
2023/06/27 07:41:09;;;;;;;10.43;7.25;;;;;;;26.96;45.58;99383.78;4392366;32;34064;-67
2023/06/27 07:43:37;;;;;;;10.23;7.62;;;;;;;26.98;45.50;99390.87;4392543;32;34848;-68
2023/06/27 07:46:05;;;;;;;10.80;7.60;;;;;;;26.99;45.40;99392.53;4392725;32;32917;-68
2023/06/27 07:48:34;;;;;;;11.07;7.43;;;;;;;27.00;45.27;99394.19;4392550;32;34158;-67
2023/06/27 07:51:02;;;;;;;9.40;6.93;;;;;;;27.01;45.02;99391.22;4392895;32;33792;-68
2023/06/27 07:53:30;;;;;;;9.60;6.87;;;;;;;27.02;44.85;99392.03;4392647;32;34839;-68
2023/06/27 07:55:57;;;;;;;10.18;7.20;;;;;;;27.03;44.72;99397.22;4392425;32;33413;-68
2023/06/27 07:58:25;;;;;;;9.25;6.85;;;;;;;27.04;44.66;99396.12;4391959;32;33892;-68
2023/06/27 08:00:54;;;;;;;9.38;6.65;;;;;;;27.05;44.63;99394.25;4366627;32;34097;-68
2023/06/27 08:03:22;;;;;;;8.52;6.72;;;;;;;27.06;44.53;99404.94;4375241;32;33985;-68
2023/06/27 08:05:51;;;;;;;8.65;7.25;;;;;;;27.06;44.45;99410.41;4376948;32;33538;-68
2023/06/27 08:08:19;;;;;;;8.88;6.25;;;;;;;27.08;44.41;99407.41;4377732;32;34009;-68
2023/06/27 08:10:47;;;;;;;8.52;6.50;;;;;;;27.09;44.42;99414.56;4377328;32;33288;-68
2023/06/27 08:13:14;;;;;;;8.77;6.62;;;;;;;27.09;44.41;99415.41;4376475;32;34159;-68
2023/06/27 08:15:42;;;;;;;8.63;6.85;;;;;;;27.10;44.32;99413.50;4377247;32;33687;-69
2023/06/27 08:18:09;;;;;;;9.68;7.37;;;;;;;27.11;44.25;99426.09;4375013;32;33783;-69
2023/06/27 08:20:37;;;;;;;9.07;6.78;;;;;;;27.11;44.27;99423.34;4374123;32;34001;-68
2023/06/27 08:23:06;;;;;;;8.10;6.53;;;;;;;27.12;44.20;99425.81;4368952;32;34794;-68
2023/06/27 08:25:33;;;;;;;8.13;6.57;;;;;;;27.11;44.14;99424.19;4355188;32;33179;-68
2023/06/27 08:28:01;;;;;;;8.05;6.68;;;;;;;27.13;44.08;99421.16;4369698;32;33877;-69
2023/06/27 08:30:29;;;;;;;8.80;7.00;;;;;;;27.13;44.04;99418.44;4374031;32;34658;-69
2023/06/27 08:32:57;;;;;;;9.35;6.93;;;;;;;27.14;43.98;99415.47;4374933;32;34106;-69
2023/06/27 08:35:24;;;;;;;8.23;6.75;;;;;;;27.14;43.94;99418.19;4373885;32;33113;-69
2023/06/27 08:37:56;;;;;;;8.55;6.55;;;;;;;27.15;43.92;99411.63;4374113;32;33941;-69
2023/06/27 08:40:27;;;;;;;8.43;6.65;;;;;;;27.15;43.86;99413.53;4372154;32;33455;-68
2023/06/27 08:42:54;;;;;;;8.20;6.68;;;;;;;27.15;43.87;99405.31;4370529;32;34967;-69
2023/06/27 08:45:22;;;;;;;8.30;6.68;;;;;;;27.15;43.79;99422.56;4377061;32;33385;-69
2023/06/27 08:47:49;;;;;;;8.10;6.78;;;;;;;27.17;43.75;99422.31;4374770;32;34778;-69
2023/06/27 08:50:17;;;;;;;8.23;6.70;;;;;;;27.17;43.74;99427.78;4361740;32;34921;-69
2023/06/27 08:52:51;;;;;;;9.68;6.32;;;;;;;27.17;43.70;99431.34;4349656;32;34931;-69
2023/06/27 08:55:45;;;;;;;8.82;6.40;;;;;;;27.17;43.72;99427.78;4349384;32;33691;-69
2023/06/27 08:58:16;;;;;;;9.27;6.93;;;;;;;27.21;43.66;99426.19;4375802;32;34002;-69
2023/06/27 09:00:44;;;;;;;8.68;6.55;;;;;;;27.17;43.65;99427.78;4361205;32;34099;-69
2023/06/27 09:03:12;;;;;;;8.23;6.22;;;;;;;27.18;43.60;99423.94;4376384;32;34299;-69
2023/06/27 09:05:41;;;;;;;8.40;6.75;;;;;;;27.18;43.58;99434.91;4360910;32;33364;-69
2023/06/27 09:08:11;;;;;;;10.20;7.05;;;;;;;27.17;43.57;99436.81;4347687;32;34348;-69
2023/06/27 09:10:44;;;;;;;7.93;5.95;;;;;;;27.18;43.57;99445.88;4359235;32;34746;-68
2023/06/27 09:13:12;;;;;;;8.05;6.15;;;;;;;27.18;43.56;99448.59;4374575;32;34055;-68
2023/06/27 09:15:39;;;;;;;9.45;6.43;;;;;;;27.18;43.52;99445.88;4373551;32;33573;-69
2023/06/27 09:18:08;;;;;;;9.00;6.75;;;;;;;27.18;43.50;99446.69;4374732;32;33545;-69
2023/06/27 09:20:36;;;;;;;7.87;5.85;;;;;;;27.20;43.48;99455.50;4376962;32;34527;-69
2023/06/27 09:23:05;;;;;;;9.02;6.55;;;;;;;27.19;43.48;99459.31;4347624;32;33834;-69
2023/06/27 09:25:33;;;;;;;8.45;6.30;;;;;;;27.20;43.51;99462.88;4356074;32;34557;-68
2023/06/27 09:28:20;;;;;;;8.13;6.57;;;;;;;27.21;43.48;99459.03;4362336;32;34856;-68
2023/06/27 09:30:54;;;;;;;7.65;6.05;;;;;;;27.24;43.52;99465.94;4376926;32;34867;-69
2023/06/27 09:33:22;;;;;;;7.93;5.93;;;;;;;27.21;43.53;99470.81;4376976;32;34200;-68
2023/06/27 09:35:53;;;;;;;7.60;6.05;;;;;;;27.21;43.50;99468.09;4376077;32;34272;-69
2023/06/27 09:38:24;;;;;;;8.38;6.93;;;;;;;27.21;43.49;99457.12;4374565;32;34845;-69
2023/06/27 09:41:20;;;;;;;8.80;6.28;;;;;;;27.22;43.47;99452.47;4376642;32;34795;-69
2023/06/27 09:43:50;;;;;;;9.60;6.47;;;;;;;27.25;43.45;99451.97;4373321;32;34873;-69
2023/06/27 09:46:18;;;;;;;8.45;6.28;;;;;;;27.23;43.50;99447.81;4374509;32;33709;-69
2023/06/27 09:48:46;;;;;;;8.95;6.35;;;;;;;27.24;43.50;99460.47;4363112;32;34753;-69
2023/06/27 09:51:13;;;;;;;7.32;5.70;;;;;;;27.24;43.54;99460.47;4362480;32;33966;-69
2023/06/27 09:53:42;;;;;;;7.50;5.78;;;;;;;27.23;43.54;99464.25;4376628;32;34769;-70
2023/06/27 09:56:10;;;;;;;8.18;6.47;;;;;;;27.22;43.58;99468.91;4374893;32;33977;-68
2023/06/27 09:58:37;;;;;;;7.25;5.60;;;;;;;27.24;43.58;99466.75;4376210;32;34761;-69
2023/06/27 10:01:05;;;;;;;8.23;6.18;;;;;;;27.25;43.57;99475.81;4376373;32;34409;-69
2023/06/27 10:03:33;;;;;;;8.07;6.40;;;;;;;27.25;43.54;99473.06;4349644;32;34012;-69
2023/06/27 10:06:04;;;;;;;7.93;6.15;;;;;;;27.26;43.55;99469.22;4376082;32;34374;-69
2023/06/27 10:08:39;;;;;;;8.07;6.45;;;;;;;27.25;43.56;99473.06;4374002;32;33793;-69
2023/06/27 10:11:07;;;;;;;7.87;5.85;;;;;;;27.26;43.54;99472.78;4363263;32;33863;-69
2023/06/27 10:13:39;;;;;;;8.95;6.22;;;;;;;27.27;43.53;99465.41;4375757;32;33911;-69
2023/06/27 10:16:07;;;;;;;7.18;5.55;;;;;;;27.27;43.51;99473.63;4374337;32;34465;-69
2023/06/27 10:18:34;;;;;;;8.68;6.32;;;;;;;27.27;43.51;99476.34;4348485;32;34712;-69
2023/06/27 10:21:02;;;;;;;7.80;6.07;;;;;;;27.27;43.51;99466.22;4361618;32;33897;-69
2023/06/27 10:23:30;;;;;;;8.95;6.37;;;;;;;27.27;43.50;99474.44;4349088;32;34256;-69
2023/06/27 10:25:58;;;;;;;8.55;5.70;;;;;;;27.28;43.51;99475.25;4375698;32;34163;-68
2023/06/27 10:28:25;;;;;;;7.43;5.82;;;;;;;27.27;43.51;99463.47;4349074;32;34735;-69
2023/06/27 10:30:53;;;;;;;7.35;5.90;;;;;;;27.28;43.51;99464.31;4350199;32;34057;-68
2023/06/27 10:33:27;;;;;;;7.72;5.90;;;;;;;27.29;43.51;99468.72;4376360;32;35633;-69
2023/06/27 10:36:04;;;;;;;7.97;6.37;;;;;;;27.28;43.53;99476.13;4374801;32;33523;-68
2023/06/27 10:38:36;;;;;;;8.20;5.87;;;;;;;27.30;43.52;99481.31;4377068;32;34085;-68
2023/06/27 10:41:07;;;;;;;8.20;5.97;;;;;;;27.29;43.62;99490.63;4385429;32;33834;-68
2023/06/27 10:43:51;;;;;;;7.53;5.78;;;;;;;27.28;43.63;99495.28;4376063;32;34205;-68
2023/06/27 10:46:22;;;;;;;8.50;6.12;;;;;;;27.31;43.66;99510.38;4376065;32;33685;-68
2023/06/27 10:48:53;;;;;;;9.45;5.65;;;;;;;27.29;43.68;99505.16;4376184;32;34653;-69
2023/06/27 10:51:22;;;;;;;7.75;6.50;;;;;;;27.29;43.69;99512.53;4369552;32;33875;-69
2023/06/27 10:54:17;;;;;;;7.53;5.87;;;;;;;27.30;43.68;99511.44;4347368;32;34195;-69
2023/06/27 10:56:46;;;;;;;7.55;6.00;;;;;;;27.32;43.61;99512.00;4361324;32;34515;-69
2023/06/27 10:59:18;;;;;;;7.72;5.72;;;;;;;27.30;43.65;99519.69;4347757;32;33767;-69
2023/06/27 11:01:58;;;;;;;7.40;5.72;;;;;;;27.30;43.67;99514.19;4347674;32;34477;-69
2023/06/27 11:04:39;;;;;;;7.45;5.85;;;;;;;27.30;43.70;99514.19;4360945;32;34585;-69
2023/06/27 11:07:09;;;;;;;7.22;5.87;;;;;;;27.31;43.70;99526.81;4349433;32;34415;-69
2023/06/27 11:09:37;;;;;;;8.88;5.97;;;;;;;27.31;43.67;99521.31;4360845;32;33818;-69
2023/06/27 11:12:11;;;;;;;8.27;6.10;;;;;;;27.31;43.66;99518.59;4360917;32;33749;-69
2023/06/27 11:14:40;;;;;;;7.43;5.93;;;;;;;27.30;43.68;99516.94;4360921;32;34138;-69
2023/06/27 11:17:08;;;;;;;7.35;5.50;;;;;;;27.30;43.67;99527.87;4347607;32;34345;-69
2023/06/27 11:19:36;;;;;;;8.07;5.50;;;;;;;27.30;43.62;99538.84;4360870;32;33963;-69
2023/06/27 11:22:05;;;;;;;7.70;5.67;;;;;;;27.30;43.64;99538.84;4357215;32;33977;-69
2023/06/27 11:24:32;;;;;;;7.80;5.85;;;;;;;27.31;43.60;99541.31;4375719;32;34164;-69
2023/06/27 11:27:01;;;;;;;9.10;6.00;;;;;;;27.31;43.61;99548.72;4362196;32;34015;-68
2023/06/27 11:29:29;;;;;;;8.25;5.75;;;;;;;27.30;43.60;99564.31;4375427;32;34923;-68
2023/06/27 11:31:56;;;;;;;7.47;5.87;;;;;;;27.32;43.58;99566.81;4375644;32;34124;-69
2023/06/27 11:34:24;;;;;;;7.12;5.90;;;;;;;27.31;43.58;99560.50;4362269;32;34059;-69
2023/06/27 11:36:53;;;;;;;8.65;5.70;;;;;;;27.31;43.54;99556.94;4375289;32;33639;-69
2023/06/27 11:39:22;;;;;;;7.43;5.35;;;;;;;27.31;43.56;99559.66;4375606;32;33707;-69